Surface Data

86.5 °F / 30.3 °C
ENE at 7 MPH
69%
75.6°F / 24.2 °C
29.84" (1010 mb)
10 mile(s)
partly cloudy
2021.09.19 2320 UTC

Surface Data

Raw METARs

2021/09/19 23:20
PKWA 192320Z AUTO 07006KT 10SM SCT022 SCT033 30/24 A2984 RMK AO2 T03030242

Translated METAR

Kwajalein, Bucholz AAF, Kwajalein KMR ATOL Airport, Marshall Islands (PKWA) 08-43N 167-44E 2M
Sep 19, 2021 - 07:20 PM EDT / 2021.09.19 2320 UTC
Wind: from the ENE (070 degrees) at 7 MPH (6 KT):0
Visibility: 10 mile(s):0
Sky conditions: partly cloudy
Temperature: 86.5 F (30.3 C)
Heat index: 95.9 F (35.5 C):1
Dew Point: 75.6 F (24.2 C)
Relative Humidity: 69%
Pressure (altimeter): 29.84 in. Hg (1010 hPa)
ob: PKWA 192320Z AUTO 07006KT 10SM SCT022 SCT033 30/24 A2984 RMK AO2 T03030242
cycle: 23